NDF57EL EDDN-OBBI
Flight info
| Callsign | NDF57EL |
|---|---|
| Flight time | 5h 1m |
| Altitude | 31000 |
| Route | RODIS1C RODIS L604 RUDNO DCT LULAR T703 DEXIT DCT PESAT DCT ILHAK DCT EKNAB/N0451F330 DCT PETOS DCT IVGOT Q7 ARTAT UP975 LESRI P975 MUTAG/N0460F350 P975 ULDUR M688 SIDAD P975 LONOS L703 KOBOK KOBOK1 |
| Aircraft | A321/M-SDE3FGHIRWY/LB1 |
Departure
| Time | 2026-04-29 22:49 |
|---|---|
| Airport | Nuremberg Airport (EDDN) |
Arrival
| Time | 2026-04-30 03:51 |
|---|---|
| Airport | Bahrain International Airport (OBBI) |
| Time | Latitude | Longitude | Altitude | Speed | Heading |
|---|---|---|---|---|---|
| 2026-04-29 21:55 | 49.49528 | 11.07725 | 1022 ft | 0 kts | 188° |
| 2026-04-29 21:55 | 49.49525 | 11.07725 | 1023 ft | 0 kts | 188° |
| 2026-04-29 22:40 | 49.49529 | 11.07726 | 1026 ft | 3 kts | 188° |
| 2026-04-29 22:40 | 49.49553 | 11.07731 | 1026 ft | 2 kts | 189° |
| 2026-04-29 22:41 | 49.49575 | 11.07731 | 1024 ft | 4 kts | 147° |
| 2026-04-29 22:41 | 49.49591 | 11.07702 | 1026 ft | 4 kts | 104° |
| 2026-04-29 22:41 | 49.49593 | 11.07691 | 1026 ft | 0 kts | 98° |
| 2026-04-29 22:44 | 49.49594 | 11.07718 | 1026 ft | 5 kts | 79° |
| 2026-04-29 22:44 | 49.49626 | 11.07763 | 1026 ft | 12 kts | 23° |
| 2026-04-29 22:45 | 49.49687 | 11.07696 | 1024 ft | 13 kts | 287° |
| 2026-04-29 22:45 | 49.49696 | 11.07548 | 1024 ft | 14 kts | 272° |
| 2026-04-29 22:45 | 49.49715 | 11.07390 | 1023 ft | 16 kts | 283° |
| 2026-04-29 22:45 | 49.49731 | 11.07224 | 1022 ft | 16 kts | 277° |
| 2026-04-29 22:46 | 49.49747 | 11.07048 | 1021 ft | 17 kts | 278° |
| 2026-04-29 22:46 | 49.49765 | 11.06863 | 1019 ft | 18 kts | 278° |
| 2026-04-29 22:46 | 49.49785 | 11.06668 | 1020 ft | 18 kts | 279° |
| 2026-04-29 22:46 | 49.49805 | 11.06479 | 1019 ft | 15 kts | 277° |
| 2026-04-29 22:47 | 49.49819 | 11.06313 | 1018 ft | 16 kts | 277° |
| 2026-04-29 22:47 | 49.49835 | 11.06142 | 1019 ft | 16 kts | 278° |
| 2026-04-29 22:47 | 49.49871 | 11.05995 | 1021 ft | 14 kts | 320° |
| 2026-04-29 22:47 | 49.49944 | 11.05930 | 1023 ft | 10 kts | 345° |
| 2026-04-29 22:48 | 49.50002 | 11.05919 | 1026 ft | 7 kts | 15° |
| 2026-04-29 22:48 | 49.50040 | 11.06000 | 1028 ft | 16 kts | 76° |
| 2026-04-29 22:48 | 49.50037 | 11.06090 | 1027 ft | 4 kts | 100° |
| 2026-04-29 22:48 | 49.50006 | 11.06446 | 1024 ft | 72 kts | 98° |
| 2026-04-29 22:49 | 49.49896 | 11.07566 | 1025 ft | 137 kts | 98° |
| 2026-04-29 22:49 | 49.49757 | 11.09211 | 1319 ft | 163 kts | 96° |
| 2026-04-29 22:49 | 49.49636 | 11.10886 | 2361 ft | 153 kts | 95° |
| 2026-04-29 22:49 | 49.49517 | 11.12478 | 3263 ft | 147 kts | 98° |
| 2026-04-29 22:50 | 49.49345 | 11.14076 | 3562 ft | 160 kts | 99° |
| 2026-04-29 22:50 | 49.49145 | 11.15867 | 3709 ft | 179 kts | 100° |
| 2026-04-29 22:50 | 49.48928 | 11.17843 | 3884 ft | 194 kts | 99° |
| 2026-04-29 22:50 | 49.48699 | 11.19979 | 4016 ft | 212 kts | 99° |
| 2026-04-29 22:51 | 49.48458 | 11.22261 | 4360 ft | 220 kts | 99° |
| 2026-04-29 22:51 | 49.48213 | 11.24620 | 4769 ft | 227 kts | 98° |
| 2026-04-29 22:51 | 49.48065 | 11.29665 | 5527 ft | 247 kts | 90° |
| 2026-04-29 22:52 | 49.48053 | 11.32332 | 6086 ft | 252 kts | 89° |
| 2026-04-29 22:52 | 49.48044 | 11.35050 | 6632 ft | 257 kts | 87° |
| 2026-04-29 22:52 | 49.48033 | 11.37827 | 7147 ft | 262 kts | 88° |
| 2026-04-29 22:52 | 49.48018 | 11.40644 | 7682 ft | 265 kts | 88° |
| 2026-04-29 22:53 | 49.47997 | 11.43485 | 8258 ft | 267 kts | 88° |
| 2026-04-29 22:53 | 49.47974 | 11.46354 | 8801 ft | 270 kts | 88° |
| 2026-04-29 22:53 | 49.47949 | 11.49250 | 9367 ft | 273 kts | 88° |
| 2026-04-29 22:53 | 49.47924 | 11.52179 | 9922 ft | 275 kts | 88° |
| 2026-04-29 22:54 | 49.47897 | 11.55089 | 10431 ft | 277 kts | 88° |
| 2026-04-29 22:54 | 49.47868 | 11.58118 | 10670 ft | 292 kts | 88° |
| 2026-04-29 22:54 | 49.47840 | 11.61327 | 10798 ft | 308 kts | 88° |
| 2026-04-29 22:54 | 49.47799 | 11.64702 | 10925 ft | 324 kts | 90° |
| 2026-04-29 22:55 | 49.47311 | 11.68168 | 11051 ft | 342 kts | 105° |
| 2026-04-29 22:55 | 49.46526 | 11.71706 | 11190 ft | 356 kts | 105° |
| 2026-04-29 22:55 | 49.45694 | 11.75367 | 11320 ft | 369 kts | 106° |
| 2026-04-29 22:55 | 49.44832 | 11.79123 | 11649 ft | 375 kts | 106° |
| 2026-04-29 22:56 | 49.43962 | 11.82906 | 12099 ft | 377 kts | 106° |
| 2026-04-29 22:56 | 49.43098 | 11.86662 | 12562 ft | 379 kts | 105° |
| 2026-04-29 22:56 | 49.42219 | 11.90488 | 13020 ft | 381 kts | 105° |
| 2026-04-29 22:56 | 49.41337 | 11.94330 | 13495 ft | 383 kts | 105° |
| 2026-04-29 22:57 | 49.40451 | 11.98196 | 13962 ft | 385 kts | 105° |
| 2026-04-29 22:57 | 49.39562 | 12.02079 | 14390 ft | 387 kts | 105° |
| 2026-04-29 22:57 | 49.38668 | 12.05980 | 14781 ft | 389 kts | 105° |
| 2026-04-29 22:57 | 49.37764 | 12.09909 | 15151 ft | 391 kts | 105° |
| 2026-04-29 22:58 | 49.36851 | 12.13856 | 15503 ft | 394 kts | 105° |
| 2026-04-29 22:58 | 49.35937 | 12.17780 | 15845 ft | 397 kts | 105° |
| 2026-04-29 22:58 | 49.35006 | 12.21782 | 16221 ft | 399 kts | 105° |
| 2026-04-29 22:58 | 49.34072 | 12.25802 | 16582 ft | 401 kts | 105° |
| 2026-04-29 22:59 | 49.33132 | 12.29843 | 16954 ft | 403 kts | 104° |
| 2026-04-29 22:59 | 49.32186 | 12.33904 | 17314 ft | 405 kts | 104° |
| 2026-04-29 22:59 | 49.31232 | 12.37977 | 17681 ft | 407 kts | 104° |
| 2026-04-29 22:59 | 49.30271 | 12.42068 | 18047 ft | 409 kts | 104° |
| 2026-04-29 23:00 | 49.29305 | 12.46182 | 18381 ft | 412 kts | 104° |
| 2026-04-29 23:00 | 49.28335 | 12.50322 | 18687 ft | 415 kts | 104° |
| 2026-04-29 23:00 | 49.27370 | 12.54429 | 19003 ft | 417 kts | 104° |
| 2026-04-29 23:00 | 49.26384 | 12.58607 | 19313 ft | 418 kts | 104° |
| 2026-04-29 23:01 | 49.25391 | 12.62806 | 19622 ft | 420 kts | 104° |
| 2026-04-29 23:01 | 49.24394 | 12.67014 | 19934 ft | 422 kts | 104° |
| 2026-04-29 23:01 | 49.23390 | 12.71237 | 20253 ft | 423 kts | 104° |
| 2026-04-29 23:01 | 49.22379 | 12.75473 | 20559 ft | 425 kts | 104° |
| 2026-04-29 23:02 | 49.21366 | 12.79725 | 20877 ft | 426 kts | 104° |
| 2026-04-29 23:02 | 49.20352 | 12.83987 | 21184 ft | 427 kts | 104° |
| 2026-04-29 23:02 | 49.19346 | 12.88209 | 21477 ft | 429 kts | 104° |
| 2026-04-29 23:02 | 49.18320 | 12.92503 | 21782 ft | 431 kts | 104° |
| 2026-04-29 23:03 | 49.17289 | 12.96805 | 22099 ft | 433 kts | 104° |
| 2026-04-29 23:03 | 49.16249 | 13.01132 | 22417 ft | 434 kts | 104° |
| 2026-04-29 23:03 | 49.15203 | 13.05470 | 22722 ft | 436 kts | 104° |
| 2026-04-29 23:03 | 49.14149 | 13.09822 | 23024 ft | 438 kts | 104° |
| 2026-04-29 23:04 | 49.12994 | 13.14151 | 23309 ft | 444 kts | 110° |
| 2026-04-29 23:04 | 49.11411 | 13.18241 | 23575 ft | 453 kts | 119° |
| 2026-04-29 23:04 | 49.09372 | 13.21961 | 23838 ft | 462 kts | 129° |
| 2026-04-29 23:04 | 49.07061 | 13.25403 | 24064 ft | 465 kts | 130° |
| 2026-04-29 23:05 | 49.04771 | 13.28801 | 24284 ft | 466 kts | 129° |
| 2026-04-29 23:05 | 49.02445 | 13.32258 | 24555 ft | 467 kts | 129° |
| 2026-04-29 23:05 | 49.00116 | 13.35722 | 24767 ft | 469 kts | 129° |
| 2026-04-29 23:05 | 48.97784 | 13.39193 | 25003 ft | 470 kts | 129° |
| 2026-04-29 23:06 | 48.95445 | 13.42666 | 25203 ft | 471 kts | 130° |
| 2026-04-29 23:06 | 48.93095 | 13.46146 | 25383 ft | 472 kts | 130° |
| 2026-04-29 23:06 | 48.90740 | 13.49630 | 25543 ft | 473 kts | 130° |
| 2026-04-29 23:06 | 48.88378 | 13.53125 | 25717 ft | 474 kts | 130° |
| 2026-04-29 23:07 | 48.86014 | 13.56618 | 25889 ft | 475 kts | 130° |
| 2026-04-29 23:07 | 48.83676 | 13.60059 | 26139 ft | 474 kts | 130° |
| 2026-04-29 23:07 | 48.81311 | 13.63532 | 26395 ft | 473 kts | 130° |
| 2026-04-29 23:07 | 48.78959 | 13.67008 | 26640 ft | 471 kts | 128° |
| 2026-04-29 23:08 | 48.76862 | 13.70777 | 26810 ft | 465 kts | 120° |
| 2026-04-29 23:08 | 48.75160 | 13.74909 | 27025 ft | 459 kts | 112° |
| 2026-04-29 23:08 | 48.73829 | 13.79272 | 27248 ft | 455 kts | 108° |
| 2026-04-29 23:08 | 48.72555 | 13.83655 | 27476 ft | 455 kts | 108° |
| 2026-04-29 23:09 | 48.71271 | 13.88032 | 27688 ft | 455 kts | 109° |
| 2026-04-29 23:09 | 48.69979 | 13.92404 | 27936 ft | 454 kts | 109° |
| 2026-04-29 23:09 | 48.68702 | 13.96702 | 28165 ft | 454 kts | 109° |
| 2026-04-29 23:09 | 48.67407 | 14.01056 | 28398 ft | 453 kts | 109° |
| 2026-04-29 23:10 | 48.66115 | 14.05395 | 28672 ft | 453 kts | 109° |
| 2026-04-29 23:10 | 48.64816 | 14.09758 | 28812 ft | 456 kts | 110° |
| 2026-04-29 23:10 | 48.63512 | 14.14137 | 28951 ft | 458 kts | 110° |
| 2026-04-29 23:10 | 48.62202 | 14.18537 | 29111 ft | 460 kts | 110° |
| 2026-04-29 23:11 | 48.60889 | 14.22941 | 29326 ft | 460 kts | 110° |
| 2026-04-29 23:11 | 48.59574 | 14.27344 | 29556 ft | 460 kts | 110° |
| 2026-04-29 23:11 | 48.58275 | 14.31675 | 29785 ft | 459 kts | 110° |
| 2026-04-29 23:11 | 48.56957 | 14.36069 | 30018 ft | 459 kts | 110° |
| 2026-04-29 23:12 | 48.55637 | 14.40453 | 30248 ft | 459 kts | 110° |
| 2026-04-29 23:12 | 48.54314 | 14.44833 | 30510 ft | 459 kts | 110° |
| 2026-04-29 23:12 | 48.52987 | 14.49221 | 30630 ft | 461 kts | 110° |
| 2026-04-29 23:12 | 48.51656 | 14.53619 | 30760 ft | 462 kts | 110° |
| 2026-04-29 23:13 | 48.50321 | 14.58029 | 30893 ft | 462 kts | 110° |
| 2026-04-29 23:13 | 48.48987 | 14.62433 | 31054 ft | 462 kts | 110° |
| 2026-04-29 23:13 | 48.47668 | 14.66782 | 31213 ft | 462 kts | 110° |
| 2026-04-29 23:13 | 48.46328 | 14.71187 | 31366 ft | 463 kts | 110° |
| 2026-04-29 23:14 | 48.44982 | 14.75591 | 31523 ft | 463 kts | 110° |
| 2026-04-29 23:14 | 48.43633 | 14.79994 | 31674 ft | 463 kts | 110° |
| 2026-04-29 23:14 | 48.42282 | 14.84398 | 31857 ft | 464 kts | 110° |
| 2026-04-29 23:14 | 48.40929 | 14.88809 | 31981 ft | 465 kts | 110° |
| 2026-04-29 23:15 | 48.39574 | 14.93224 | 32106 ft | 465 kts | 110° |
| 2026-04-29 23:15 | 48.38215 | 14.97651 | 32236 ft | 466 kts | 110° |
| 2026-04-29 23:15 | 48.36870 | 15.02016 | 32388 ft | 466 kts | 110° |
| 2026-04-29 23:15 | 48.35499 | 15.06450 | 32417 ft | 469 kts | 110° |
| 2026-04-29 23:16 | 48.32736 | 15.15390 | 32425 ft | 473 kts | 110° |
| 2026-04-29 23:16 | 48.29951 | 15.24354 | 32418 ft | 474 kts | 111° |
| 2026-04-29 23:17 | 48.27143 | 15.33328 | 32412 ft | 476 kts | 111° |
| 2026-04-29 23:17 | 48.24329 | 15.42297 | 32427 ft | 480 kts | 111° |
| 2026-04-29 23:18 | 48.21487 | 15.51351 | 32435 ft | 480 kts | 111° |
| 2026-04-29 23:18 | 48.18626 | 15.60417 | 32463 ft | 482 kts | 112° |
| 2026-04-29 23:19 | 48.15747 | 15.69490 | 32445 ft | 483 kts | 112° |
| 2026-04-29 23:19 | 48.12879 | 15.78515 | 32442 ft | 483 kts | 112° |
| 2026-04-29 23:20 | 48.09988 | 15.87598 | 32445 ft | 484 kts | 112° |
| 2026-04-29 23:20 | 48.07090 | 15.96678 | 32477 ft | 484 kts | 112° |
| 2026-04-29 23:21 | 48.04171 | 16.05758 | 32454 ft | 485 kts | 113° |
| 2026-04-29 23:21 | 48.01234 | 16.14844 | 32450 ft | 486 kts | 113° |
| 2026-04-29 23:22 | 47.98308 | 16.23862 | 32445 ft | 486 kts | 113° |
| 2026-04-29 23:22 | 47.95363 | 16.32937 | 32472 ft | 486 kts | 113° |
| 2026-04-29 23:23 | 47.92412 | 16.42020 | 32446 ft | 488 kts | 113° |
| 2026-04-29 23:23 | 47.89440 | 16.51117 | 32436 ft | 488 kts | 114° |
| 2026-04-29 23:24 | 47.86472 | 16.60157 | 32410 ft | 489 kts | 114° |
| 2026-04-29 23:24 | 47.83468 | 16.69271 | 32396 ft | 491 kts | 114° |
| 2026-04-29 23:25 | 47.80451 | 16.78396 | 32381 ft | 492 kts | 114° |
| 2026-04-29 23:25 | 47.77429 | 16.87533 | 32391 ft | 493 kts | 114° |
| 2026-04-29 23:26 | 47.74388 | 16.96664 | 32399 ft | 493 kts | 114° |
| 2026-04-29 23:26 | 47.71350 | 17.05722 | 32420 ft | 493 kts | 114° |
| 2026-04-29 23:27 | 47.68418 | 17.14918 | 32408 ft | 493 kts | 112° |
| 2026-04-29 23:27 | 47.65636 | 17.24199 | 32399 ft | 492 kts | 111° |
| 2026-04-29 23:28 | 47.62833 | 17.33458 | 32397 ft | 492 kts | 112° |
| 2026-04-29 23:28 | 47.59975 | 17.42604 | 32421 ft | 492 kts | 113° |
| 2026-04-29 23:29 | 47.57079 | 17.51807 | 32405 ft | 493 kts | 113° |
| 2026-04-29 23:29 | 47.54191 | 17.61027 | 32402 ft | 494 kts | 113° |
| 2026-04-29 23:30 | 47.51297 | 17.70245 | 32383 ft | 494 kts | 113° |
| 2026-04-29 23:30 | 47.48413 | 17.79398 | 32402 ft | 494 kts | 114° |
| 2026-04-29 23:31 | 47.45489 | 17.88614 | 32367 ft | 496 kts | 114° |
| 2026-04-29 23:31 | 47.42554 | 17.97839 | 32363 ft | 497 kts | 114° |
| 2026-04-29 23:32 | 47.39612 | 18.07069 | 32364 ft | 497 kts | 114° |
| 2026-04-29 23:32 | 47.36673 | 18.16225 | 32380 ft | 497 kts | 115° |
| 2026-04-29 23:33 | 47.33707 | 18.25454 | 32365 ft | 498 kts | 114° |
| 2026-04-29 23:33 | 47.30733 | 18.34683 | 32360 ft | 499 kts | 115° |
| 2026-04-29 23:34 | 47.27745 | 18.43911 | 32353 ft | 499 kts | 115° |
| 2026-04-29 23:34 | 47.24747 | 18.53133 | 32348 ft | 499 kts | 115° |
| 2026-04-29 23:35 | 47.21758 | 18.62288 | 32341 ft | 500 kts | 115° |
| 2026-04-29 23:35 | 47.18742 | 18.71520 | 32330 ft | 501 kts | 115° |
| 2026-04-29 23:36 | 47.15713 | 18.80749 | 32329 ft | 501 kts | 115° |
| 2026-04-29 23:36 | 47.12676 | 18.89961 | 32341 ft | 502 kts | 116° |
| 2026-04-29 23:37 | 47.09623 | 18.99192 | 32337 ft | 503 kts | 116° |
| 2026-04-29 23:37 | 47.06578 | 19.08355 | 32330 ft | 503 kts | 116° |
| 2026-04-29 23:38 | 47.03505 | 19.17565 | 32330 ft | 503 kts | 116° |
| 2026-04-29 23:38 | 47.00422 | 19.26786 | 32297 ft | 504 kts | 117° |
| 2026-04-29 23:39 | 46.97321 | 19.36020 | 32286 ft | 506 kts | 117° |
| 2026-04-29 23:39 | 46.94096 | 19.45100 | 32290 ft | 507 kts | 120° |
| 2026-04-29 23:40 | 46.90653 | 19.54099 | 32296 ft | 507 kts | 121° |
| 2026-04-29 23:40 | 46.87180 | 19.63085 | 32311 ft | 508 kts | 121° |
| 2026-04-29 23:41 | 46.83747 | 19.72116 | 32331 ft | 509 kts | 121° |
| 2026-04-29 23:41 | 46.80350 | 19.81104 | 32329 ft | 509 kts | 121° |
| 2026-04-29 23:42 | 46.76919 | 19.90146 | 32333 ft | 509 kts | 121° |
| 2026-04-29 23:42 | 46.73465 | 19.99170 | 32318 ft | 510 kts | 121° |
| 2026-04-29 23:43 | 46.69998 | 20.08189 | 32308 ft | 510 kts | 121° |
| 2026-04-29 23:43 | 46.66542 | 20.17148 | 32292 ft | 511 kts | 121° |
| 2026-04-29 23:44 | 46.63067 | 20.26161 | 32285 ft | 511 kts | 121° |
| 2026-04-29 23:44 | 46.59581 | 20.35168 | 32259 ft | 511 kts | 121° |
| 2026-04-29 23:45 | 46.56083 | 20.44156 | 32265 ft | 511 kts | 122° |
| 2026-04-29 23:45 | 46.52576 | 20.53134 | 32278 ft | 511 kts | 122° |
| 2026-04-29 23:46 | 46.49089 | 20.62049 | 32273 ft | 511 kts | 122° |
| 2026-04-29 23:46 | 46.45569 | 20.71019 | 32272 ft | 512 kts | 122° |
| 2026-04-29 23:47 | 46.42036 | 20.79984 | 32274 ft | 512 kts | 122° |
| 2026-04-29 23:47 | 46.38492 | 20.88934 | 32270 ft | 512 kts | 122° |
| 2026-04-29 23:48 | 46.34941 | 20.97883 | 32274 ft | 513 kts | 122° |
| 2026-04-29 23:48 | 46.31413 | 21.06776 | 32274 ft | 513 kts | 122° |
| 2026-04-29 23:49 | 46.27847 | 21.15713 | 32278 ft | 513 kts | 123° |
| 2026-04-29 23:49 | 46.24265 | 21.24643 | 32292 ft | 514 kts | 123° |
| 2026-04-29 23:50 | 46.20673 | 21.33576 | 32286 ft | 515 kts | 123° |
| 2026-04-29 23:51 | 46.15290 | 21.46922 | 32243 ft | 516 kts | 123° |
| 2026-04-29 23:51 | 46.11664 | 21.55863 | 32225 ft | 517 kts | 124° |
| 2026-04-29 23:52 | 46.08021 | 21.64805 | 32203 ft | 518 kts | 124° |
| 2026-04-29 23:52 | 46.04393 | 21.73708 | 32204 ft | 520 kts | 124° |
| 2026-04-29 23:53 | 46.00728 | 21.82679 | 32204 ft | 520 kts | 124° |
| 2026-04-29 23:53 | 45.97054 | 21.91649 | 32209 ft | 521 kts | 124° |
| 2026-04-29 23:54 | 45.93367 | 22.00621 | 32211 ft | 521 kts | 124° |
| 2026-04-29 23:54 | 45.89686 | 22.09516 | 32218 ft | 522 kts | 124° |
| 2026-04-29 23:55 | 45.85972 | 22.18462 | 32228 ft | 522 kts | 124° |
| 2026-04-29 23:55 | 45.82251 | 22.27409 | 32210 ft | 523 kts | 125° |
| 2026-04-29 23:56 | 45.78526 | 22.36364 | 32211 ft | 523 kts | 125° |
| 2026-04-29 23:56 | 45.74785 | 22.45310 | 32194 ft | 524 kts | 125° |
| 2026-04-29 23:57 | 45.71069 | 22.54210 | 32192 ft | 525 kts | 124° |
| 2026-04-29 23:57 | 45.67422 | 22.63255 | 32208 ft | 525 kts | 123° |
| 2026-04-29 23:58 | 45.63807 | 22.72329 | 32223 ft | 525 kts | 124° |
| 2026-04-29 23:58 | 45.60157 | 22.81368 | 32232 ft | 525 kts | 124° |
| 2026-04-29 23:59 | 45.56488 | 22.90378 | 32224 ft | 525 kts | 124° |
| 2026-04-29 23:59 | 45.52829 | 22.99317 | 32228 ft | 525 kts | 124° |
| 2026-04-30 00:00 | 45.49145 | 23.08311 | 32231 ft | 525 kts | 124° |
| 2026-04-30 00:00 | 45.45454 | 23.17297 | 32223 ft | 526 kts | 124° |
| 2026-04-30 00:01 | 45.41754 | 23.26278 | 32223 ft | 526 kts | 124° |
| 2026-04-30 00:01 | 45.38066 | 23.35199 | 32228 ft | 527 kts | 125° |
| 2026-04-30 00:02 | 45.34342 | 23.44164 | 32236 ft | 527 kts | 125° |
| 2026-04-30 00:02 | 45.30618 | 23.53133 | 32205 ft | 527 kts | 125° |
| 2026-04-30 00:03 | 45.26886 | 23.62090 | 32211 ft | 527 kts | 125° |
| 2026-04-30 00:03 | 45.23141 | 23.71020 | 32218 ft | 527 kts | 126° |
| 2026-04-30 00:04 | 45.19409 | 23.79883 | 32210 ft | 527 kts | 126° |
| 2026-04-30 00:04 | 45.15642 | 23.88802 | 32218 ft | 528 kts | 126° |
| 2026-04-30 00:05 | 45.11871 | 23.97722 | 32225 ft | 527 kts | 126° |
| 2026-04-30 00:05 | 45.08102 | 24.06624 | 32225 ft | 527 kts | 126° |
| 2026-04-30 00:06 | 45.04325 | 24.15516 | 32219 ft | 527 kts | 126° |
| 2026-04-30 00:06 | 45.00559 | 24.24331 | 32219 ft | 527 kts | 126° |
| 2026-04-30 00:07 | 44.96760 | 24.33198 | 32218 ft | 528 kts | 126° |
| 2026-04-30 00:07 | 44.92960 | 24.42049 | 32215 ft | 528 kts | 126° |
| 2026-04-30 00:08 | 44.89145 | 24.50893 | 32175 ft | 528 kts | 126° |
| 2026-04-30 00:08 | 44.85352 | 24.59672 | 32194 ft | 527 kts | 126° |
| 2026-04-30 00:09 | 44.81534 | 24.68491 | 32181 ft | 527 kts | 126° |
| 2026-04-30 00:09 | 44.77702 | 24.77303 | 32186 ft | 528 kts | 126° |
| 2026-04-30 00:10 | 44.73863 | 24.86106 | 32201 ft | 528 kts | 126° |
| 2026-04-30 00:10 | 44.70047 | 24.94843 | 32214 ft | 528 kts | 126° |
| 2026-04-30 00:11 | 44.66193 | 25.03622 | 32211 ft | 528 kts | 126° |
| 2026-04-30 00:11 | 44.62326 | 25.12390 | 32208 ft | 528 kts | 126° |
| 2026-04-30 00:12 | 44.58458 | 25.21143 | 32213 ft | 528 kts | 126° |
| 2026-04-30 00:12 | 44.54579 | 25.29888 | 32210 ft | 528 kts | 126° |
| 2026-04-30 00:13 | 44.50723 | 25.38562 | 32208 ft | 528 kts | 126° |
| 2026-04-30 00:13 | 44.46842 | 25.47289 | 32210 ft | 528 kts | 126° |
| 2026-04-30 00:14 | 44.43065 | 25.56117 | 32158 ft | 529 kts | 124° |
| 2026-04-30 00:14 | 44.39368 | 25.65009 | 32183 ft | 529 kts | 124° |
| 2026-04-30 00:15 | 44.35671 | 25.73810 | 32200 ft | 528 kts | 124° |
| 2026-04-30 00:15 | 44.31902 | 25.82623 | 32210 ft | 528 kts | 125° |
| 2026-04-30 00:16 | 44.28120 | 25.91417 | 32199 ft | 528 kts | 125° |
| 2026-04-30 00:16 | 44.24345 | 26.00209 | 32196 ft | 528 kts | 124° |
| 2026-04-30 00:17 | 44.20565 | 26.08992 | 32198 ft | 528 kts | 125° |
| 2026-04-30 00:17 | 44.16804 | 26.17702 | 32185 ft | 528 kts | 125° |
| 2026-04-30 00:18 | 44.13014 | 26.26449 | 32192 ft | 528 kts | 125° |
| 2026-04-30 00:18 | 44.09214 | 26.35189 | 32193 ft | 527 kts | 125° |
| 2026-04-30 00:19 | 44.05417 | 26.43913 | 32188 ft | 527 kts | 125° |
| 2026-04-30 00:19 | 44.01616 | 26.52629 | 32189 ft | 527 kts | 125° |
| 2026-04-30 00:20 | 43.97828 | 26.61273 | 32190 ft | 527 kts | 125° |
| 2026-04-30 00:20 | 43.94007 | 26.69956 | 32178 ft | 526 kts | 125° |
| 2026-04-30 00:21 | 43.90186 | 26.78600 | 32201 ft | 525 kts | 125° |
| 2026-04-30 00:21 | 43.86367 | 26.87228 | 32203 ft | 525 kts | 125° |
| 2026-04-30 00:22 | 43.82581 | 26.95780 | 32199 ft | 524 kts | 125° |
| 2026-04-30 00:22 | 43.78759 | 27.04363 | 32188 ft | 523 kts | 125° |
| 2026-04-30 00:23 | 43.74942 | 27.12928 | 32192 ft | 523 kts | 125° |
| 2026-04-30 00:23 | 43.71767 | 27.20025 | 32195 ft | 522 kts | 125° |
| 2026-04-30 00:24 | 43.67318 | 27.29933 | 32191 ft | 522 kts | 126° |
| 2026-04-30 00:24 | 43.63487 | 27.38433 | 32198 ft | 521 kts | 126° |
| 2026-04-30 00:25 | 43.59657 | 27.46916 | 32200 ft | 520 kts | 126° |
| 2026-04-30 00:25 | 43.56472 | 27.53952 | 32202 ft | 520 kts | 126° |
| 2026-04-30 00:26 | 43.52011 | 27.63764 | 32198 ft | 519 kts | 126° |
| 2026-04-30 00:26 | 43.48799 | 27.70816 | 32196 ft | 519 kts | 126° |
| 2026-04-30 00:27 | 43.44989 | 27.79156 | 32179 ft | 517 kts | 126° |
| 2026-04-30 00:27 | 43.41162 | 27.87523 | 32182 ft | 516 kts | 126° |
| 2026-04-30 00:28 | 43.37336 | 27.95871 | 32188 ft | 515 kts | 126° |
| 2026-04-30 00:28 | 43.33507 | 28.04184 | 32190 ft | 515 kts | 126° |
| 2026-04-30 00:29 | 43.29672 | 28.12487 | 32176 ft | 514 kts | 126° |
| 2026-04-30 00:29 | 43.25864 | 28.20715 | 32201 ft | 514 kts | 126° |
| 2026-04-30 00:30 | 43.22016 | 28.28991 | 32200 ft | 514 kts | 126° |
| 2026-04-30 00:30 | 43.18164 | 28.37250 | 32202 ft | 514 kts | 126° |
| 2026-04-30 00:31 | 43.14307 | 28.45503 | 32198 ft | 514 kts | 126° |
| 2026-04-30 00:31 | 43.10396 | 28.53607 | 32194 ft | 511 kts | 132° |
| 2026-04-30 00:32 | 43.05692 | 28.60829 | 32198 ft | 508 kts | 137° |
| 2026-04-30 00:32 | 43.00911 | 28.67942 | 32192 ft | 508 kts | 137° |
| 2026-04-30 00:33 | 42.96130 | 28.75058 | 32187 ft | 508 kts | 137° |
| 2026-04-30 00:33 | 42.91347 | 28.82158 | 32191 ft | 508 kts | 137° |
| 2026-04-30 00:34 | 42.86583 | 28.89199 | 32184 ft | 508 kts | 137° |
| 2026-04-30 00:34 | 42.81788 | 28.96273 | 32189 ft | 508 kts | 137° |
| 2026-04-30 00:35 | 42.76991 | 29.03331 | 32192 ft | 508 kts | 137° |
| 2026-04-30 00:35 | 42.72190 | 29.10375 | 32194 ft | 508 kts | 137° |
| 2026-04-30 00:36 | 42.67388 | 29.17411 | 32179 ft | 507 kts | 137° |
| 2026-04-30 00:36 | 42.62623 | 29.24381 | 32189 ft | 507 kts | 137° |
| 2026-04-30 00:37 | 42.57825 | 29.31379 | 32196 ft | 506 kts | 137° |
| 2026-04-30 00:37 | 42.53023 | 29.38365 | 32185 ft | 506 kts | 137° |
| 2026-04-30 00:38 | 42.48221 | 29.45335 | 32188 ft | 506 kts | 137° |
| 2026-04-30 00:38 | 42.43448 | 29.52247 | 32185 ft | 506 kts | 137° |
| 2026-04-30 00:39 | 42.38702 | 29.59274 | 32183 ft | 509 kts | 131° |
| 2026-04-30 00:39 | 42.35124 | 29.67573 | 32176 ft | 515 kts | 113° |
| 2026-04-30 00:40 | 42.32775 | 29.76735 | 32175 ft | 516 kts | 110° |
| 2026-04-30 00:40 | 42.30458 | 29.85846 | 32169 ft | 517 kts | 110° |
| 2026-04-30 00:41 | 42.28112 | 29.95021 | 32169 ft | 517 kts | 110° |
| 2026-04-30 00:41 | 42.25762 | 30.04192 | 32175 ft | 517 kts | 110° |
| 2026-04-30 00:42 | 42.23409 | 30.13364 | 32172 ft | 517 kts | 110° |
| 2026-04-30 00:42 | 42.21056 | 30.22457 | 32176 ft | 517 kts | 110° |
| 2026-04-30 00:43 | 42.18681 | 30.31603 | 32181 ft | 517 kts | 110° |
| 2026-04-30 00:43 | 42.16310 | 30.40744 | 32177 ft | 516 kts | 110° |
| 2026-04-30 00:44 | 42.13930 | 30.49873 | 32168 ft | 516 kts | 110° |
| 2026-04-30 00:44 | 42.11537 | 30.58974 | 32172 ft | 515 kts | 110° |
| 2026-04-30 00:45 | 42.09162 | 30.68007 | 32174 ft | 515 kts | 110° |
| 2026-04-30 00:45 | 42.06763 | 30.77089 | 32174 ft | 515 kts | 111° |
| 2026-04-30 00:46 | 42.04355 | 30.86158 | 32171 ft | 515 kts | 110° |
| 2026-04-30 00:46 | 42.01943 | 30.95217 | 32168 ft | 514 kts | 111° |
| 2026-04-30 00:47 | 41.99541 | 31.04210 | 32168 ft | 514 kts | 111° |
| 2026-04-30 00:47 | 41.97122 | 31.13257 | 32167 ft | 514 kts | 111° |
| 2026-04-30 00:48 | 41.94697 | 31.22295 | 32165 ft | 514 kts | 111° |
| 2026-04-30 00:48 | 41.92268 | 31.31325 | 32163 ft | 514 kts | 111° |
| 2026-04-30 00:49 | 41.89852 | 31.40279 | 32152 ft | 514 kts | 111° |
| 2026-04-30 00:49 | 41.87405 | 31.49289 | 32159 ft | 513 kts | 111° |
| 2026-04-30 00:50 | 41.84951 | 31.58284 | 32158 ft | 513 kts | 111° |
| 2026-04-30 00:50 | 41.82497 | 31.67273 | 32147 ft | 513 kts | 111° |
| 2026-04-30 00:51 | 41.80033 | 31.76240 | 32157 ft | 513 kts | 111° |
| 2026-04-30 00:51 | 41.77566 | 31.85131 | 32158 ft | 512 kts | 111° |
| 2026-04-30 00:52 | 41.75091 | 31.94076 | 32156 ft | 512 kts | 111° |
| 2026-04-30 00:52 | 41.72611 | 32.03015 | 32154 ft | 512 kts | 111° |
| 2026-04-30 00:53 | 41.70119 | 32.11938 | 32156 ft | 512 kts | 111° |
| 2026-04-30 00:53 | 41.67640 | 32.20794 | 32157 ft | 512 kts | 111° |
| 2026-04-30 00:54 | 41.65147 | 32.29709 | 32147 ft | 512 kts | 111° |
| 2026-04-30 00:54 | 41.62651 | 32.38618 | 32153 ft | 511 kts | 111° |
| 2026-04-30 00:55 | 41.60139 | 32.47503 | 32160 ft | 511 kts | 112° |
| 2026-04-30 00:55 | 41.56374 | 32.60751 | 32157 ft | 511 kts | 112° |
| 2026-04-30 00:56 | 41.53848 | 32.69614 | 32160 ft | 511 kts | 112° |
| 2026-04-30 00:56 | 41.51320 | 32.78468 | 32167 ft | 510 kts | 112° |
| 2026-04-30 00:57 | 41.48790 | 32.87309 | 32168 ft | 510 kts | 112° |
| 2026-04-30 00:57 | 41.46264 | 32.96079 | 32170 ft | 510 kts | 112° |
| 2026-04-30 00:58 | 41.43166 | 33.04530 | 32176 ft | 507 kts | 121° |
| 2026-04-30 00:58 | 41.39743 | 33.12753 | 32183 ft | 507 kts | 121° |
| 2026-04-30 00:59 | 41.36323 | 33.20963 | 32177 ft | 507 kts | 121° |
| 2026-04-30 00:59 | 41.32930 | 33.29176 | 32181 ft | 506 kts | 120° |
| 2026-04-30 01:00 | 41.29644 | 33.37388 | 32190 ft | 506 kts | 120° |
| 2026-04-30 01:00 | 41.26373 | 33.45667 | 32186 ft | 506 kts | 120° |
| 2026-04-30 01:01 | 41.23122 | 33.53955 | 32185 ft | 505 kts | 120° |
| 2026-04-30 01:01 | 41.19852 | 33.62216 | 32166 ft | 505 kts | 120° |
| 2026-04-30 01:02 | 41.16590 | 33.70398 | 32169 ft | 504 kts | 120° |
| 2026-04-30 01:02 | 41.13311 | 33.78619 | 32170 ft | 504 kts | 120° |
| 2026-04-30 01:03 | 41.10028 | 33.86821 | 32151 ft | 503 kts | 120° |
| 2026-04-30 01:03 | 41.06742 | 33.95010 | 32160 ft | 503 kts | 120° |
| 2026-04-30 01:04 | 41.03461 | 34.03188 | 32146 ft | 502 kts | 120° |
| 2026-04-30 01:04 | 41.00195 | 34.11290 | 32143 ft | 502 kts | 120° |
| 2026-04-30 01:05 | 40.96894 | 34.19436 | 32138 ft | 502 kts | 120° |
| 2026-04-30 01:05 | 40.93591 | 34.27565 | 32135 ft | 502 kts | 120° |
| 2026-04-30 01:06 | 40.90294 | 34.35692 | 32136 ft | 502 kts | 120° |
| 2026-04-30 01:06 | 40.86988 | 34.43805 | 32120 ft | 501 kts | 121° |
| 2026-04-30 01:07 | 40.83699 | 34.51845 | 32132 ft | 501 kts | 120° |
| 2026-04-30 01:07 | 40.80392 | 34.59929 | 32130 ft | 500 kts | 120° |
| 2026-04-30 01:08 | 40.77076 | 34.67989 | 32138 ft | 499 kts | 121° |
| 2026-04-30 01:08 | 40.73751 | 34.76024 | 32138 ft | 499 kts | 121° |
| 2026-04-30 01:09 | 40.70348 | 34.83995 | 32133 ft | 498 kts | 122° |
| 2026-04-30 01:09 | 40.66919 | 34.91855 | 32132 ft | 498 kts | 122° |
| 2026-04-30 01:10 | 40.63473 | 34.99774 | 32134 ft | 498 kts | 122° |
| 2026-04-30 01:10 | 40.60051 | 35.07710 | 32139 ft | 498 kts | 122° |
| 2026-04-30 01:11 | 40.56631 | 35.15626 | 32142 ft | 498 kts | 122° |
| 2026-04-30 01:11 | 40.53217 | 35.23474 | 32142 ft | 498 kts | 122° |
| 2026-04-30 01:12 | 40.49770 | 35.31365 | 32147 ft | 498 kts | 122° |
| 2026-04-30 01:12 | 40.46315 | 35.39246 | 32146 ft | 498 kts | 122° |
| 2026-04-30 01:13 | 40.42857 | 35.47118 | 32147 ft | 498 kts | 122° |
| 2026-04-30 01:13 | 40.39403 | 35.54989 | 32148 ft | 498 kts | 122° |
| 2026-04-30 01:14 | 40.35965 | 35.62796 | 32156 ft | 498 kts | 122° |
| 2026-04-30 01:14 | 40.32495 | 35.70640 | 32153 ft | 497 kts | 122° |
| 2026-04-30 01:15 | 40.29023 | 35.78479 | 32169 ft | 497 kts | 122° |
| 2026-04-30 01:15 | 40.25551 | 35.86305 | 32178 ft | 497 kts | 122° |
| 2026-04-30 01:16 | 40.22099 | 35.94070 | 32176 ft | 497 kts | 122° |
| 2026-04-30 01:16 | 40.18619 | 36.01874 | 32184 ft | 496 kts | 122° |
| 2026-04-30 01:17 | 40.15129 | 36.09660 | 32189 ft | 496 kts | 122° |
| 2026-04-30 01:17 | 40.11631 | 36.17430 | 32182 ft | 496 kts | 122° |
| 2026-04-30 01:18 | 40.08135 | 36.25190 | 32183 ft | 495 kts | 122° |
| 2026-04-30 01:18 | 40.04668 | 36.32889 | 32178 ft | 495 kts | 122° |
| 2026-04-30 01:19 | 40.01174 | 36.40633 | 32174 ft | 495 kts | 122° |
| 2026-04-30 01:19 | 39.97669 | 36.48357 | 32178 ft | 494 kts | 123° |
| 2026-04-30 01:20 | 39.94157 | 36.56061 | 32172 ft | 494 kts | 123° |
| 2026-04-30 01:20 | 39.90679 | 36.63707 | 32152 ft | 494 kts | 123° |
| 2026-04-30 01:21 | 39.87172 | 36.71395 | 32155 ft | 494 kts | 123° |
| 2026-04-30 01:21 | 39.83661 | 36.79071 | 32154 ft | 493 kts | 123° |
| 2026-04-30 01:22 | 39.80142 | 36.86730 | 32145 ft | 493 kts | 123° |
| 2026-04-30 01:22 | 39.76670 | 36.94345 | 32151 ft | 493 kts | 122° |
| 2026-04-30 01:23 | 39.73237 | 37.02049 | 32152 ft | 493 kts | 122° |
| 2026-04-30 01:23 | 39.69806 | 37.09756 | 32149 ft | 493 kts | 122° |
| 2026-04-30 01:24 | 39.66357 | 37.17439 | 32144 ft | 493 kts | 122° |
| 2026-04-30 01:24 | 39.62891 | 37.25106 | 32140 ft | 493 kts | 122° |
| 2026-04-30 01:25 | 39.59449 | 37.32718 | 32143 ft | 492 kts | 122° |
| 2026-04-30 01:25 | 39.55976 | 37.40366 | 32129 ft | 492 kts | 122° |
| 2026-04-30 01:26 | 39.52497 | 37.48011 | 32124 ft | 492 kts | 122° |
| 2026-04-30 01:26 | 39.49017 | 37.55651 | 32119 ft | 493 kts | 122° |
| 2026-04-30 01:27 | 39.45551 | 37.63228 | 32114 ft | 492 kts | 122° |
| 2026-04-30 01:27 | 39.42062 | 37.70852 | 32112 ft | 493 kts | 122° |
| 2026-04-30 01:28 | 39.38562 | 37.78471 | 32115 ft | 493 kts | 122° |
| 2026-04-30 01:28 | 39.35051 | 37.86073 | 32106 ft | 492 kts | 122° |
| 2026-04-30 01:29 | 39.31541 | 37.93666 | 32106 ft | 492 kts | 122° |
| 2026-04-30 01:29 | 39.28051 | 38.01192 | 32107 ft | 492 kts | 123° |
| 2026-04-30 01:30 | 39.24529 | 38.08762 | 32110 ft | 492 kts | 122° |
| 2026-04-30 01:30 | 39.21006 | 38.16316 | 32100 ft | 491 kts | 123° |
| 2026-04-30 01:31 | 39.17483 | 38.23858 | 32109 ft | 491 kts | 123° |
| 2026-04-30 01:31 | 39.13979 | 38.31338 | 32095 ft | 491 kts | 123° |
| 2026-04-30 01:32 | 39.10451 | 38.38853 | 32097 ft | 490 kts | 123° |
| 2026-04-30 01:32 | 39.06924 | 38.46359 | 32086 ft | 490 kts | 123° |
| 2026-04-30 01:33 | 39.03389 | 38.53848 | 32081 ft | 489 kts | 123° |
| 2026-04-30 01:33 | 38.99853 | 38.61315 | 32082 ft | 489 kts | 123° |
| 2026-04-30 01:34 | 38.96344 | 38.68725 | 32083 ft | 488 kts | 123° |
| 2026-04-30 01:34 | 38.92810 | 38.76178 | 32079 ft | 488 kts | 123° |
| 2026-04-30 01:35 | 38.89272 | 38.83628 | 32076 ft | 489 kts | 123° |
| 2026-04-30 01:35 | 38.85722 | 38.91069 | 32081 ft | 489 kts | 123° |
| 2026-04-30 01:36 | 38.82173 | 38.98501 | 32076 ft | 489 kts | 122° |
| 2026-04-30 01:36 | 38.78668 | 39.05895 | 32083 ft | 488 kts | 122° |
| 2026-04-30 01:37 | 38.75142 | 39.13337 | 32084 ft | 488 kts | 122° |
| 2026-04-30 01:37 | 38.71556 | 39.20717 | 32076 ft | 487 kts | 128° |
| 2026-04-30 01:38 | 38.66984 | 39.27020 | 32068 ft | 482 kts | 139° |
| 2026-04-30 01:38 | 38.62109 | 39.32840 | 32070 ft | 482 kts | 139° |
| 2026-04-30 01:39 | 38.57209 | 39.38691 | 32071 ft | 482 kts | 139° |
| 2026-04-30 01:39 | 38.52308 | 39.44535 | 32069 ft | 482 kts | 139° |
| 2026-04-30 01:40 | 38.47403 | 39.50369 | 32066 ft | 482 kts | 139° |
| 2026-04-30 01:40 | 38.42493 | 39.56191 | 32070 ft | 482 kts | 139° |
| 2026-04-30 01:41 | 38.37607 | 39.61968 | 32070 ft | 482 kts | 139° |
| 2026-04-30 01:41 | 38.32690 | 39.67776 | 32064 ft | 482 kts | 139° |
| 2026-04-30 01:42 | 38.27775 | 39.73581 | 32066 ft | 481 kts | 139° |
| 2026-04-30 01:42 | 38.22865 | 39.79369 | 32071 ft | 481 kts | 139° |
| 2026-04-30 01:43 | 38.17984 | 39.85109 | 32066 ft | 481 kts | 139° |
| 2026-04-30 01:43 | 38.13062 | 39.90869 | 32066 ft | 481 kts | 139° |
| 2026-04-30 01:44 | 38.08143 | 39.96626 | 32068 ft | 481 kts | 139° |
| 2026-04-30 01:44 | 38.03227 | 40.02383 | 32068 ft | 481 kts | 139° |
| 2026-04-30 01:45 | 37.98339 | 40.08087 | 32073 ft | 481 kts | 139° |
| 2026-04-30 01:45 | 37.93417 | 40.13811 | 32074 ft | 480 kts | 139° |
| 2026-04-30 01:46 | 37.88500 | 40.19529 | 32078 ft | 480 kts | 139° |
| 2026-04-30 01:46 | 37.83678 | 40.25360 | 32077 ft | 480 kts | 136° |
| 2026-04-30 01:47 | 37.79050 | 40.31443 | 32063 ft | 480 kts | 134° |
| 2026-04-30 01:47 | 37.74476 | 40.37504 | 32064 ft | 480 kts | 135° |
| 2026-04-30 01:48 | 37.69818 | 40.43545 | 32069 ft | 480 kts | 135° |
| 2026-04-30 01:48 | 37.65129 | 40.49548 | 32072 ft | 480 kts | 136° |
| 2026-04-30 01:49 | 37.60436 | 40.55535 | 32065 ft | 480 kts | 135° |
| 2026-04-30 01:49 | 37.55781 | 40.61485 | 32061 ft | 480 kts | 135° |
| 2026-04-30 01:50 | 37.51102 | 40.67465 | 32058 ft | 479 kts | 135° |
| 2026-04-30 01:50 | 37.46420 | 40.73436 | 32055 ft | 479 kts | 135° |
| 2026-04-30 01:51 | 37.41735 | 40.79401 | 32049 ft | 479 kts | 135° |
| 2026-04-30 01:51 | 37.37049 | 40.85360 | 32052 ft | 479 kts | 135° |
| 2026-04-30 01:52 | 37.32392 | 40.91269 | 32056 ft | 479 kts | 135° |
| 2026-04-30 01:52 | 37.27698 | 40.97211 | 32048 ft | 479 kts | 135° |
| 2026-04-30 01:53 | 37.23000 | 41.03148 | 32055 ft | 479 kts | 135° |
| 2026-04-30 01:53 | 37.18298 | 41.09079 | 32057 ft | 479 kts | 135° |
| 2026-04-30 01:54 | 37.13600 | 41.15001 | 32055 ft | 479 kts | 135° |
| 2026-04-30 01:54 | 37.08929 | 41.20878 | 32045 ft | 479 kts | 135° |
| 2026-04-30 01:55 | 37.03782 | 41.26131 | 32048 ft | 478 kts | 145° |
| 2026-04-30 01:55 | 36.98379 | 41.30984 | 32039 ft | 479 kts | 145° |
| 2026-04-30 01:56 | 36.92970 | 41.35845 | 32039 ft | 479 kts | 145° |
| 2026-04-30 01:56 | 36.87590 | 41.40677 | 32040 ft | 480 kts | 145° |
| 2026-04-30 01:57 | 36.82166 | 41.45529 | 32034 ft | 480 kts | 145° |
| 2026-04-30 01:57 | 36.76741 | 41.50376 | 32037 ft | 479 kts | 145° |
| 2026-04-30 01:58 | 36.71314 | 41.55216 | 32034 ft | 480 kts | 145° |
| 2026-04-30 01:58 | 36.65887 | 41.60055 | 32032 ft | 480 kts | 145° |
| 2026-04-30 01:59 | 36.57780 | 41.67266 | 32036 ft | 480 kts | 146° |
| 2026-04-30 02:00 | 36.52415 | 41.72204 | 32034 ft | 480 kts | 143° |
| 2026-04-30 02:00 | 36.47201 | 41.77397 | 32034 ft | 480 kts | 142° |
| 2026-04-30 02:01 | 36.42008 | 41.82616 | 32039 ft | 480 kts | 142° |
| 2026-04-30 02:01 | 36.36804 | 41.87722 | 32034 ft | 480 kts | 143° |
| 2026-04-30 02:02 | 36.31543 | 41.92824 | 32035 ft | 480 kts | 143° |
| 2026-04-30 02:02 | 36.26277 | 41.97927 | 32037 ft | 481 kts | 143° |
| 2026-04-30 02:03 | 36.21015 | 42.03031 | 32032 ft | 480 kts | 143° |
| 2026-04-30 02:03 | 36.15756 | 42.08135 | 32037 ft | 480 kts | 143° |
| 2026-04-30 02:04 | 36.10530 | 42.13193 | 32031 ft | 480 kts | 143° |
| 2026-04-30 02:04 | 36.05272 | 42.18267 | 32031 ft | 480 kts | 143° |
| 2026-04-30 02:05 | 36.00010 | 42.23338 | 32025 ft | 479 kts | 143° |
| 2026-04-30 02:05 | 35.94752 | 42.28402 | 32028 ft | 479 kts | 143° |
| 2026-04-30 02:06 | 35.89493 | 42.33460 | 32022 ft | 479 kts | 143° |
| 2026-04-30 02:06 | 35.84269 | 42.38472 | 32024 ft | 479 kts | 143° |
| 2026-04-30 02:07 | 35.79006 | 42.43502 | 32024 ft | 479 kts | 143° |
| 2026-04-30 02:07 | 35.73744 | 42.48522 | 32025 ft | 478 kts | 144° |
| 2026-04-30 02:08 | 35.68484 | 42.53528 | 32023 ft | 478 kts | 143° |
| 2026-04-30 02:08 | 35.63267 | 42.58506 | 32023 ft | 478 kts | 143° |
| 2026-04-30 02:09 | 35.58013 | 42.63510 | 32021 ft | 478 kts | 144° |
| 2026-04-30 02:09 | 35.52760 | 42.68498 | 32025 ft | 477 kts | 144° |
| 2026-04-30 02:10 | 35.47516 | 42.73474 | 32024 ft | 477 kts | 144° |
| 2026-04-30 02:10 | 35.42270 | 42.78437 | 32018 ft | 476 kts | 144° |
| 2026-04-30 02:11 | 35.37053 | 42.83359 | 32013 ft | 476 kts | 144° |
| 2026-04-30 02:11 | 35.31805 | 42.88307 | 32011 ft | 476 kts | 144° |
| 2026-04-30 02:12 | 35.26563 | 42.93252 | 32008 ft | 476 kts | 144° |
| 2026-04-30 02:12 | 35.21310 | 42.98191 | 32009 ft | 476 kts | 144° |
| 2026-04-30 02:13 | 35.16055 | 43.03117 | 32009 ft | 476 kts | 144° |
| 2026-04-30 02:13 | 35.10832 | 43.07998 | 32008 ft | 476 kts | 144° |
| 2026-04-30 02:14 | 35.05570 | 43.12904 | 32009 ft | 476 kts | 144° |
| 2026-04-30 02:14 | 35.00317 | 43.17811 | 32007 ft | 475 kts | 144° |
| 2026-04-30 02:15 | 34.95065 | 43.22710 | 31998 ft | 475 kts | 145° |
| 2026-04-30 02:15 | 34.89847 | 43.27568 | 32001 ft | 475 kts | 145° |
| 2026-04-30 02:16 | 34.84589 | 43.32449 | 31999 ft | 475 kts | 145° |
| 2026-04-30 02:16 | 34.79330 | 43.37319 | 32003 ft | 475 kts | 145° |
| 2026-04-30 02:17 | 34.74067 | 43.42184 | 32004 ft | 475 kts | 145° |
| 2026-04-30 02:17 | 34.68800 | 43.47043 | 31993 ft | 475 kts | 145° |
| 2026-04-30 02:18 | 34.63574 | 43.51879 | 31987 ft | 475 kts | 146° |
| 2026-04-30 02:18 | 34.58306 | 43.56741 | 31988 ft | 476 kts | 146° |
| 2026-04-30 02:19 | 34.53035 | 43.61583 | 31997 ft | 475 kts | 146° |
| 2026-04-30 02:19 | 34.47757 | 43.66413 | 31994 ft | 475 kts | 146° |
| 2026-04-30 02:20 | 34.42527 | 43.71215 | 31991 ft | 475 kts | 146° |
| 2026-04-30 02:20 | 34.37258 | 43.76051 | 31990 ft | 475 kts | 146° |
| 2026-04-30 02:21 | 34.31984 | 43.80866 | 31974 ft | 475 kts | 146° |
| 2026-04-30 02:21 | 34.26707 | 43.85672 | 31974 ft | 475 kts | 146° |
| 2026-04-30 02:22 | 34.21467 | 43.90445 | 31975 ft | 475 kts | 146° |
| 2026-04-30 02:22 | 34.16308 | 43.95451 | 31977 ft | 476 kts | 142° |
| 2026-04-30 02:23 | 34.11367 | 44.00793 | 31974 ft | 477 kts | 141° |
| 2026-04-30 02:23 | 34.06454 | 44.06175 | 31969 ft | 477 kts | 141° |
| 2026-04-30 02:24 | 34.01513 | 44.11430 | 31975 ft | 476 kts | 142° |
| 2026-04-30 02:24 | 33.96505 | 44.16653 | 31968 ft | 476 kts | 142° |
| 2026-04-30 02:25 | 33.91496 | 44.21879 | 31968 ft | 476 kts | 142° |
| 2026-04-30 02:25 | 33.86499 | 44.27113 | 31970 ft | 476 kts | 142° |
| 2026-04-30 02:26 | 33.81537 | 44.32307 | 31975 ft | 476 kts | 142° |
| 2026-04-30 02:26 | 33.76536 | 44.37531 | 31975 ft | 476 kts | 142° |
| 2026-04-30 02:27 | 33.71533 | 44.42752 | 31967 ft | 476 kts | 143° |
| 2026-04-30 02:27 | 33.66529 | 44.47964 | 31970 ft | 476 kts | 143° |
| 2026-04-30 02:28 | 33.61564 | 44.53125 | 31955 ft | 475 kts | 143° |
| 2026-04-30 02:28 | 33.56563 | 44.58310 | 31962 ft | 475 kts | 143° |
| 2026-04-30 02:29 | 33.51565 | 44.63494 | 31963 ft | 476 kts | 143° |
| 2026-04-30 02:29 | 33.46588 | 44.68719 | 31968 ft | 476 kts | 143° |
| 2026-04-30 02:30 | 33.41650 | 44.73917 | 31977 ft | 476 kts | 143° |
| 2026-04-30 02:30 | 33.36669 | 44.79129 | 31990 ft | 476 kts | 143° |
| 2026-04-30 02:31 | 33.31692 | 44.84347 | 31992 ft | 476 kts | 143° |
| 2026-04-30 02:31 | 33.26728 | 44.89594 | 31998 ft | 476 kts | 143° |
| 2026-04-30 02:32 | 33.21763 | 44.94836 | 31998 ft | 476 kts | 143° |
| 2026-04-30 02:32 | 33.16823 | 45.00029 | 31995 ft | 476 kts | 143° |
| 2026-04-30 02:33 | 33.11844 | 45.05252 | 31987 ft | 477 kts | 143° |
| 2026-04-30 02:33 | 33.06860 | 45.10471 | 31981 ft | 477 kts | 143° |
| 2026-04-30 02:34 | 33.01869 | 45.15689 | 31982 ft | 477 kts | 143° |
| 2026-04-30 02:34 | 32.96869 | 45.20898 | 31985 ft | 477 kts | 144° |
| 2026-04-30 02:35 | 32.91903 | 45.26074 | 31975 ft | 478 kts | 144° |
| 2026-04-30 02:35 | 32.86902 | 45.31288 | 31986 ft | 478 kts | 144° |
| 2026-04-30 02:36 | 32.81893 | 45.36499 | 31976 ft | 479 kts | 144° |
| 2026-04-30 02:36 | 32.76972 | 45.41848 | 31992 ft | 480 kts | 142° |
| 2026-04-30 02:37 | 32.72121 | 45.47300 | 31992 ft | 480 kts | 142° |
| 2026-04-30 02:37 | 32.67302 | 45.52704 | 31983 ft | 479 kts | 143° |
| 2026-04-30 02:38 | 32.62423 | 45.58084 | 31987 ft | 479 kts | 143° |
| 2026-04-30 02:38 | 32.57541 | 45.63447 | 31993 ft | 479 kts | 143° |
| 2026-04-30 02:39 | 32.52667 | 45.68835 | 31987 ft | 479 kts | 143° |
| 2026-04-30 02:39 | 32.47800 | 45.74219 | 31998 ft | 479 kts | 143° |
| 2026-04-30 02:40 | 32.42955 | 45.79562 | 31992 ft | 479 kts | 143° |
| 2026-04-30 02:40 | 32.38072 | 45.84935 | 32001 ft | 479 kts | 143° |
| 2026-04-30 02:41 | 32.33181 | 45.90296 | 32010 ft | 479 kts | 143° |
| 2026-04-30 02:41 | 32.28282 | 45.95642 | 31996 ft | 479 kts | 144° |
| 2026-04-30 02:42 | 32.23411 | 46.00951 | 32004 ft | 480 kts | 144° |
| 2026-04-30 02:42 | 32.18510 | 46.06295 | 32009 ft | 479 kts | 144° |
| 2026-04-30 02:43 | 32.13599 | 46.11625 | 32012 ft | 480 kts | 144° |
| 2026-04-30 02:43 | 32.08692 | 46.16959 | 32004 ft | 480 kts | 144° |
| 2026-04-30 02:44 | 32.03824 | 46.22258 | 31998 ft | 480 kts | 144° |
| 2026-04-30 02:44 | 31.98916 | 46.27579 | 31992 ft | 480 kts | 144° |
| 2026-04-30 02:45 | 31.93996 | 46.32887 | 31981 ft | 480 kts | 144° |
| 2026-04-30 02:45 | 31.89069 | 46.38191 | 31969 ft | 480 kts | 144° |
| 2026-04-30 02:46 | 31.84982 | 46.42605 | 31972 ft | 480 kts | 144° |
| 2026-04-30 02:46 | 31.79258 | 46.48778 | 31978 ft | 480 kts | 144° |
| 2026-04-30 02:47 | 31.74323 | 46.54075 | 31954 ft | 480 kts | 144° |
| 2026-04-30 02:47 | 31.69388 | 46.59367 | 31969 ft | 480 kts | 145° |
| 2026-04-30 02:48 | 31.64486 | 46.64623 | 31970 ft | 480 kts | 145° |
| 2026-04-30 02:48 | 31.59546 | 46.69902 | 31947 ft | 481 kts | 145° |
| 2026-04-30 02:49 | 31.54598 | 46.75178 | 31953 ft | 481 kts | 145° |
| 2026-04-30 02:49 | 31.50482 | 46.79555 | 31955 ft | 481 kts | 145° |
| 2026-04-30 02:50 | 31.45530 | 46.84819 | 31940 ft | 481 kts | 145° |
| 2026-04-30 02:50 | 31.40579 | 46.90088 | 31949 ft | 481 kts | 145° |
| 2026-04-30 02:51 | 31.34823 | 46.96216 | 31962 ft | 482 kts | 145° |
| 2026-04-30 02:51 | 31.30670 | 47.00637 | 31959 ft | 482 kts | 146° |
| 2026-04-30 02:52 | 31.25745 | 47.05868 | 31962 ft | 482 kts | 146° |
| 2026-04-30 02:52 | 31.20781 | 47.11131 | 31960 ft | 482 kts | 146° |
| 2026-04-30 02:53 | 31.15809 | 47.16400 | 31934 ft | 483 kts | 146° |
| 2026-04-30 02:53 | 31.10867 | 47.21634 | 31953 ft | 483 kts | 146° |
| 2026-04-30 02:54 | 31.05888 | 47.26900 | 31930 ft | 483 kts | 146° |
| 2026-04-30 02:54 | 31.00897 | 47.32152 | 31940 ft | 483 kts | 146° |
| 2026-04-30 02:55 | 30.95901 | 47.37402 | 31950 ft | 484 kts | 146° |
| 2026-04-30 02:55 | 30.90906 | 47.42654 | 31926 ft | 484 kts | 147° |
| 2026-04-30 02:56 | 30.85947 | 47.47869 | 31937 ft | 484 kts | 147° |
| 2026-04-30 02:56 | 30.80953 | 47.53113 | 31938 ft | 484 kts | 147° |
| 2026-04-30 02:57 | 30.75943 | 47.58345 | 31933 ft | 484 kts | 147° |
| 2026-04-30 02:57 | 30.70934 | 47.63559 | 31946 ft | 484 kts | 147° |
| 2026-04-30 02:57 | 30.68419 | 47.66176 | 32063 ft | 486 kts | 147° |
| 2026-04-30 02:58 | 30.65901 | 47.68795 | 32231 ft | 486 kts | 147° |
| 2026-04-30 02:58 | 30.63385 | 47.71416 | 32414 ft | 486 kts | 147° |
| 2026-04-30 02:58 | 30.60902 | 47.74005 | 32542 ft | 487 kts | 147° |
| 2026-04-30 02:58 | 30.58381 | 47.76633 | 32699 ft | 487 kts | 147° |
| 2026-04-30 02:59 | 30.55856 | 47.79260 | 32872 ft | 488 kts | 147° |
| 2026-04-30 02:59 | 30.53333 | 47.81888 | 33089 ft | 487 kts | 148° |
| 2026-04-30 02:59 | 30.50809 | 47.84513 | 33284 ft | 487 kts | 148° |
| 2026-04-30 02:59 | 30.48285 | 47.87131 | 33463 ft | 486 kts | 148° |
| 2026-04-30 03:00 | 30.45762 | 47.89742 | 33573 ft | 487 kts | 148° |
| 2026-04-30 03:00 | 30.43231 | 47.92359 | 33701 ft | 488 kts | 148° |
| 2026-04-30 03:00 | 30.40693 | 47.94978 | 33841 ft | 489 kts | 148° |
| 2026-04-30 03:00 | 30.38188 | 47.97563 | 33978 ft | 489 kts | 148° |
| 2026-04-30 03:01 | 30.35651 | 48.00183 | 34115 ft | 489 kts | 148° |
| 2026-04-30 03:01 | 30.33116 | 48.02804 | 34253 ft | 488 kts | 149° |
| 2026-04-30 03:01 | 30.30575 | 48.05407 | 34359 ft | 485 kts | 152° |
| 2026-04-30 03:01 | 30.27867 | 48.07628 | 34481 ft | 475 kts | 157° |
| 2026-04-30 03:02 | 30.25124 | 48.09756 | 34610 ft | 475 kts | 157° |
| 2026-04-30 03:02 | 30.22383 | 48.11878 | 34793 ft | 474 kts | 157° |
| 2026-04-30 03:02 | 30.19642 | 48.13999 | 34918 ft | 474 kts | 157° |
| 2026-04-30 03:03 | 30.14160 | 48.18229 | 34939 ft | 474 kts | 158° |
| 2026-04-30 03:03 | 30.05982 | 48.24543 | 34943 ft | 473 kts | 158° |
| 2026-04-30 03:04 | 30.00507 | 48.28770 | 34946 ft | 473 kts | 158° |
| 2026-04-30 03:04 | 29.95031 | 48.32988 | 34943 ft | 473 kts | 158° |
| 2026-04-30 03:05 | 29.89549 | 48.37200 | 34947 ft | 474 kts | 158° |
| 2026-04-30 03:05 | 29.84099 | 48.41382 | 34948 ft | 474 kts | 158° |
| 2026-04-30 03:06 | 29.78612 | 48.45592 | 34932 ft | 474 kts | 158° |
| 2026-04-30 03:06 | 29.73127 | 48.49787 | 34939 ft | 473 kts | 158° |
| 2026-04-30 03:07 | 29.67646 | 48.53982 | 34947 ft | 473 kts | 158° |
| 2026-04-30 03:07 | 29.62202 | 48.58149 | 34933 ft | 473 kts | 159° |
| 2026-04-30 03:08 | 29.56725 | 48.62322 | 34942 ft | 472 kts | 159° |
| 2026-04-30 03:08 | 29.51247 | 48.66492 | 34959 ft | 472 kts | 159° |
| 2026-04-30 03:09 | 29.45774 | 48.70660 | 34934 ft | 472 kts | 159° |
| 2026-04-30 03:09 | 29.40294 | 48.74824 | 34942 ft | 472 kts | 159° |
| 2026-04-30 03:10 | 29.34850 | 48.78951 | 34949 ft | 472 kts | 159° |
| 2026-04-30 03:10 | 29.29370 | 48.83091 | 34938 ft | 472 kts | 159° |
| 2026-04-30 03:11 | 29.23892 | 48.87231 | 34949 ft | 472 kts | 159° |
| 2026-04-30 03:11 | 29.18418 | 48.91376 | 34953 ft | 472 kts | 159° |
| 2026-04-30 03:12 | 29.12946 | 48.95515 | 34956 ft | 472 kts | 159° |
| 2026-04-30 03:12 | 29.07506 | 48.99620 | 34957 ft | 471 kts | 159° |
| 2026-04-30 03:13 | 29.02025 | 49.03737 | 34955 ft | 471 kts | 159° |
| 2026-04-30 03:13 | 28.96546 | 49.07857 | 34929 ft | 471 kts | 159° |
| 2026-04-30 03:14 | 28.91073 | 49.11973 | 34943 ft | 471 kts | 159° |
| 2026-04-30 03:14 | 28.85630 | 49.16051 | 34950 ft | 471 kts | 159° |
| 2026-04-30 03:15 | 28.80156 | 49.20154 | 34919 ft | 471 kts | 159° |
| 2026-04-30 03:15 | 28.74680 | 49.24252 | 34933 ft | 471 kts | 159° |
| 2026-04-30 03:16 | 28.69198 | 49.28339 | 34945 ft | 471 kts | 159° |
| 2026-04-30 03:16 | 28.63752 | 49.32404 | 34944 ft | 471 kts | 159° |
| 2026-04-30 03:17 | 28.58271 | 49.36496 | 34930 ft | 472 kts | 159° |
| 2026-04-30 03:17 | 28.52781 | 49.40586 | 34941 ft | 472 kts | 159° |
| 2026-04-30 03:18 | 28.47284 | 49.44669 | 34944 ft | 472 kts | 159° |
| 2026-04-30 03:18 | 28.41789 | 49.48750 | 34927 ft | 472 kts | 159° |
| 2026-04-30 03:19 | 28.36288 | 49.52832 | 34926 ft | 472 kts | 158° |
| 2026-04-30 03:19 | 28.30831 | 49.56882 | 34939 ft | 472 kts | 159° |
| 2026-04-30 03:20 | 28.25331 | 49.60952 | 34917 ft | 472 kts | 158° |
| 2026-04-30 03:20 | 28.19831 | 49.65011 | 34934 ft | 472 kts | 159° |
| 2026-04-30 03:21 | 28.14324 | 49.69058 | 34937 ft | 472 kts | 159° |
| 2026-04-30 03:21 | 28.08860 | 49.73074 | 34911 ft | 472 kts | 158° |
| 2026-04-30 03:22 | 28.03351 | 49.77131 | 34923 ft | 472 kts | 158° |
| 2026-04-30 03:22 | 27.97844 | 49.81184 | 34929 ft | 472 kts | 158° |
| 2026-04-30 03:23 | 27.92332 | 49.85225 | 34929 ft | 472 kts | 158° |
| 2026-04-30 03:23 | 27.86858 | 49.89238 | 34906 ft | 472 kts | 158° |
| 2026-04-30 03:24 | 27.81340 | 49.93276 | 34915 ft | 473 kts | 158° |
| 2026-04-30 03:24 | 27.75816 | 49.97312 | 34923 ft | 473 kts | 158° |
| 2026-04-30 03:25 | 27.70293 | 50.01344 | 34901 ft | 473 kts | 158° |
| 2026-04-30 03:25 | 27.64768 | 50.05381 | 34914 ft | 473 kts | 158° |
| 2026-04-30 03:26 | 27.59276 | 50.09384 | 34918 ft | 473 kts | 158° |
| 2026-04-30 03:26 | 27.53747 | 50.13406 | 34900 ft | 473 kts | 158° |
| 2026-04-30 03:27 | 27.48222 | 50.17436 | 34905 ft | 473 kts | 158° |
| 2026-04-30 03:27 | 27.42696 | 50.21449 | 34912 ft | 473 kts | 158° |
| 2026-04-30 03:28 | 27.37166 | 50.25458 | 34913 ft | 473 kts | 158° |
| 2026-04-30 03:28 | 27.31670 | 50.29438 | 34912 ft | 473 kts | 158° |
| 2026-04-30 03:29 | 27.25923 | 50.32541 | 34911 ft | 442 kts | 178° |
| 2026-04-30 03:29 | 27.22922 | 50.33173 | 34421 ft | 440 kts | 180° |
| 2026-04-30 03:29 | 27.19882 | 50.33762 | 33377 ft | 447 kts | 180° |
| 2026-04-30 03:30 | 27.16802 | 50.34339 | 32347 ft | 451 kts | 180° |
| 2026-04-30 03:30 | 27.13696 | 50.34916 | 31373 ft | 451 kts | 180° |
| 2026-04-30 03:30 | 27.10617 | 50.35498 | 29761 ft | 449 kts | 180° |
| 2026-04-30 03:30 | 27.07568 | 50.36076 | 27672 ft | 452 kts | 179° |
| 2026-04-30 03:31 | 27.04462 | 50.36663 | 25691 ft | 453 kts | 179° |
| 2026-04-30 03:31 | 27.01354 | 50.37255 | 23839 ft | 453 kts | 178° |
| 2026-04-30 03:31 | 26.98254 | 50.37852 | 21798 ft | 451 kts | 177° |
| 2026-04-30 03:31 | 26.95178 | 50.38445 | 19812 ft | 447 kts | 176° |
| 2026-04-30 03:32 | 26.92131 | 50.39033 | 18389 ft | 436 kts | 176° |
| 2026-04-30 03:32 | 26.89259 | 50.39597 | 17760 ft | 403 kts | 176° |
| 2026-04-30 03:32 | 26.86586 | 50.40127 | 17035 ft | 379 kts | 176° |
| 2026-04-30 03:32 | 26.84057 | 50.40621 | 16281 ft | 360 kts | 177° |
| 2026-04-30 03:33 | 26.81679 | 50.41077 | 15553 ft | 344 kts | 178° |
| 2026-04-30 03:33 | 26.79363 | 50.41514 | 14835 ft | 331 kts | 178° |
| 2026-04-30 03:33 | 26.77130 | 50.41930 | 14140 ft | 320 kts | 179° |
| 2026-04-30 03:33 | 26.74962 | 50.42333 | 13413 ft | 312 kts | 179° |
| 2026-04-30 03:34 | 26.72844 | 50.42727 | 12630 ft | 305 kts | 179° |
| 2026-04-30 03:34 | 26.70769 | 50.43113 | 11882 ft | 300 kts | 178° |
| 2026-04-30 03:34 | 26.68718 | 50.43499 | 11150 ft | 298 kts | 178° |
| 2026-04-30 03:34 | 26.66673 | 50.43884 | 10442 ft | 298 kts | 178° |
| 2026-04-30 03:35 | 26.64629 | 50.44267 | 9743 ft | 299 kts | 177° |
| 2026-04-30 03:35 | 26.62562 | 50.44650 | 8992 ft | 311 kts | 176° |
| 2026-04-30 03:35 | 26.60406 | 50.45051 | 8240 ft | 314 kts | 175° |
| 2026-04-30 03:35 | 26.58284 | 50.45456 | 7508 ft | 306 kts | 175° |
| 2026-04-30 03:36 | 26.56210 | 50.45855 | 6811 ft | 300 kts | 174° |
| 2026-04-30 03:36 | 26.54174 | 50.46244 | 6097 ft | 294 kts | 174° |
| 2026-04-30 03:36 | 26.52173 | 50.46623 | 5361 ft | 290 kts | 174° |
| 2026-04-30 03:36 | 26.50196 | 50.46995 | 4651 ft | 287 kts | 172° |
| 2026-04-30 03:37 | 26.48239 | 50.47365 | 4026 ft | 281 kts | 171° |
| 2026-04-30 03:37 | 26.46346 | 50.47725 | 3537 ft | 271 kts | 171° |
| 2026-04-30 03:37 | 26.44547 | 50.48067 | 3128 ft | 261 kts | 171° |
| 2026-04-30 03:37 | 26.42779 | 50.48402 | 2795 ft | 257 kts | 170° |
| 2026-04-30 03:38 | 26.41022 | 50.48733 | 2422 ft | 254 kts | 170° |
| 2026-04-30 03:38 | 26.39282 | 50.49059 | 2061 ft | 255 kts | 169° |
| 2026-04-30 03:38 | 26.37524 | 50.49389 | 1701 ft | 256 kts | 170° |
| 2026-04-30 03:38 | 26.35836 | 50.49884 | 1490 ft | 243 kts | 154° |
| 2026-04-30 03:39 | 26.34521 | 50.50832 | 1491 ft | 209 kts | 134° |
| 2026-04-30 03:39 | 26.33649 | 50.51965 | 1501 ft | 180 kts | 116° |
| 2026-04-30 03:39 | 26.32990 | 50.53106 | 1494 ft | 172 kts | 115° |
| 2026-04-30 03:39 | 26.32361 | 50.54199 | 1457 ft | 169 kts | 115° |
| 2026-04-30 03:40 | 26.31727 | 50.55302 | 1319 ft | 169 kts | 114° |
| 2026-04-30 03:40 | 26.31096 | 50.56397 | 1112 ft | 167 kts | 114° |
| 2026-04-30 03:40 | 26.30467 | 50.57492 | 911 ft | 169 kts | 115° |
| 2026-04-30 03:40 | 26.29837 | 50.58576 | 707 ft | 165 kts | 117° |
| 2026-04-30 03:41 | 26.29206 | 50.59625 | 569 ft | 161 kts | 116° |
| 2026-04-30 03:41 | 26.28614 | 50.60672 | 338 ft | 161 kts | 112° |
| 2026-04-30 03:41 | 26.28044 | 50.61762 | 202 ft | 165 kts | 119° |
| 2026-04-30 03:41 | 26.27423 | 50.62787 | 54 ft | 156 kts | 121° |
| 2026-04-30 03:42 | 26.26869 | 50.63748 | 47 ft | 154 kts | 115° |
| 2026-04-30 03:42 | 26.26234 | 50.64843 | 618 ft | 181 kts | 120° |
| 2026-04-30 03:42 | 26.25506 | 50.66036 | 1493 ft | 192 kts | 118° |
| 2026-04-30 03:42 | 26.24773 | 50.67255 | 2249 ft | 189 kts | 118° |
| 2026-04-30 03:43 | 26.23991 | 50.68623 | 2723 ft | 222 kts | 118° |
| 2026-04-30 03:43 | 26.23193 | 50.70079 | 3713 ft | 228 kts | 119° |
| 2026-04-30 03:43 | 26.22341 | 50.71679 | 3836 ft | 249 kts | 118° |
| 2026-04-30 03:43 | 26.21444 | 50.73365 | 3828 ft | 254 kts | 119° |
| 2026-04-30 03:44 | 26.20554 | 50.75030 | 3795 ft | 255 kts | 118° |
| 2026-04-30 03:44 | 26.19626 | 50.76713 | 3470 ft | 255 kts | 120° |
| 2026-04-30 03:44 | 26.18686 | 50.78368 | 3170 ft | 252 kts | 119° |
| 2026-04-30 03:44 | 26.17747 | 50.79992 | 2903 ft | 247 kts | 117° |
| 2026-04-30 03:45 | 26.17260 | 50.81739 | 2558 ft | 231 kts | 79° |
| 2026-04-30 03:45 | 26.17841 | 50.83292 | 2231 ft | 212 kts | 36° |
| 2026-04-30 03:45 | 26.19124 | 50.83974 | 2205 ft | 205 kts | 9° |
| 2026-04-30 03:45 | 26.20495 | 50.83939 | 2148 ft | 194 kts | 344° |
| 2026-04-30 03:46 | 26.21605 | 50.83210 | 2026 ft | 181 kts | 318° |
| 2026-04-30 03:46 | 26.22202 | 50.82046 | 1899 ft | 178 kts | 284° |
| 2026-04-30 03:46 | 26.22189 | 50.80694 | 1769 ft | 166 kts | 279° |
| 2026-04-30 03:46 | 26.22233 | 50.79478 | 1601 ft | 152 kts | 282° |
| 2026-04-30 03:47 | 26.22282 | 50.78334 | 1512 ft | 146 kts | 282° |
| 2026-04-30 03:47 | 26.22332 | 50.77216 | 1506 ft | 144 kts | 282° |
| 2026-04-30 03:47 | 26.22381 | 50.76109 | 1503 ft | 144 kts | 281° |
| 2026-04-30 03:47 | 26.22431 | 50.74990 | 1503 ft | 146 kts | 281° |
| 2026-04-30 03:48 | 26.22482 | 50.73860 | 1510 ft | 147 kts | 281° |
| 2026-04-30 03:48 | 26.22533 | 50.72723 | 1437 ft | 146 kts | 281° |
| 2026-04-30 03:48 | 26.22718 | 50.71634 | 1310 ft | 141 kts | 295° |
| 2026-04-30 03:48 | 26.23074 | 50.70655 | 1162 ft | 138 kts | 302° |
| 2026-04-30 03:49 | 26.23517 | 50.69710 | 997 ft | 138 kts | 305° |
| 2026-04-30 03:49 | 26.24000 | 50.68788 | 841 ft | 138 kts | 307° |
| 2026-04-30 03:49 | 26.24502 | 50.67875 | 676 ft | 138 kts | 306° |
| 2026-04-30 03:49 | 26.25005 | 50.66969 | 515 ft | 137 kts | 305° |
| 2026-04-30 03:50 | 26.25516 | 50.66055 | 332 ft | 140 kts | 307° |
| 2026-04-30 03:50 | 26.26027 | 50.65150 | 144 ft | 136 kts | 308° |
| 2026-04-30 03:50 | 26.26529 | 50.64301 | 45 ft | 122 kts | 308° |
| 2026-04-30 03:50 | 26.26956 | 50.63622 | 15 ft | 86 kts | 301° |
| 2026-04-30 03:51 | 26.27162 | 50.63211 | 15 ft | 36 kts | 298° |
| 2026-04-30 03:51 | 26.27249 | 50.62989 | 16 ft | 30 kts | 274° |
| 2026-04-30 03:51 | 26.27253 | 50.62905 | 18 ft | 0 kts | 272° |
| 2026-04-30 03:51 | 26.27253 | 50.62903 | 18 ft | 1 kts | 272° |
| 2026-04-30 03:52 | 26.27253 | 50.62883 | 18 ft | 8 kts | 272° |
| 2026-04-30 03:52 | 26.27259 | 50.62765 | 18 ft | 21 kts | 277° |
| 2026-04-30 03:52 | 26.27232 | 50.62657 | 18 ft | 14 kts | 213° |
| 2026-04-30 03:52 | 26.27144 | 50.62687 | 20 ft | 13 kts | 137° |
| 2026-04-30 03:53 | 26.27121 | 50.62735 | 21 ft | 0 kts | 117° |
| 2026-04-30 03:53 | 26.27119 | 50.62740 | 21 ft | 2 kts | 118° |
| 2026-04-30 03:53 | 26.27088 | 50.62754 | 21 ft | 8 kts | 184° |
| 2026-04-30 03:53 | 26.27027 | 50.62718 | 23 ft | 3 kts | 213° |
| 2026-04-30 03:54 | 26.27018 | 50.62712 | 22 ft | 2 kts | 211° |
| 2026-04-30 03:54 | 26.27013 | 50.62708 | 23 ft | 0 kts | 212° |